Pinar del Rio, Cuba
Current Conditions -  °F | °C
As of 6:55 PM on Wednesday 17 Dec 2014 (Local Time) from MUHA Reporting Station
Few Clouds Few Clouds  
Wind Chill: 70°   Ceiling: Unl
Heat Index: 70°   Visibility: 6mi
Dew Point: 59°   Wind: 8mph
Humidity: 68%   Direction: 30°NNE
Pressure: 30.12"   Gusts: NA
Location:  22.41°N, 83.7°W
Report Text: MUHA 172255Z 03007KT 9000 FEW043 21/15 Q1020
Loading
Personal Weather Stations






























Interactive Weather Map New forecast layout! Learn more

10-Day Weather Forecast

Advertisements
Track Severe Weather on mobile